Terminal Aerodrome Forecast
Issued by NWS Dodge City, KS

Home | Current Version | Previous Version | Text Only | Print | Product List | Glossary On
Versions: 1 2 3 4 5 6 7 8 9 10 11 12 13 14 15 16 17 18 19 20 21 22 23
000
FTUS43 KDDC 262322
TAFDDC
TAF
KDDC 262322Z 2700/2724 14014G23KT P6SM BKN250
     FM270400 16013G24KT P6SM SCT003 WS020/17045KT
     FM270600 17012G22KT 5SM BR BKN040
     FM271100 19010KT 3SM BR SCT150
     FM271600 20011KT P6SM VCSH SCT250
     FM271900 19015G23KT P6SM VCSH SCT250=

USA.gov is the U.S. government's official web portal to all federal, state and local government web resources and services.